createdAt,value
2023-04-04T00:00:32.993Z,10.01
2023-04-04T00:01:30.050Z,10.22
2023-04-04T00:02:26.980Z,9.82
2023-04-04T00:03:23.919Z,9.92
2023-04-04T00:04:20.888Z,10.06
2023-04-04T00:05:17.743Z,9.80
2023-04-04T00:06:14.543Z,10.12
2023-04-04T00:07:11.327Z,9.94
2023-04-04T00:08:08.130Z,9.33
2023-04-04T00:09:04.873Z,9.49
2023-04-04T00:10:01.982Z,9.35
2023-04-04T00:11:00.633Z,9.89
2023-04-04T00:11:57.664Z,9.95
2023-04-04T00:12:54.959Z,10.21
2023-04-04T00:13:52.252Z,10.11
2023-04-04T00:14:48.972Z,10.40
2023-04-04T00:15:45.744Z,10.18
2023-04-04T00:16:42.486Z,10.25
2023-04-04T00:17:39.379Z,9.97
2023-04-04T00:18:36.286Z,9.66
2023-04-04T00:19:32.969Z,9.56
2023-04-04T00:20:30.993Z,9.83
2023-04-04T00:21:27.915Z,9.84
2023-04-04T00:22:25.983Z,9.66
2023-04-04T00:23:22.792Z,10.16
2023-04-04T00:24:19.607Z,10.22
2023-04-04T00:25:16.391Z,10.16
2023-04-04T00:26:13.237Z,9.67
2023-04-04T00:27:09.901Z,9.74
2023-04-04T00:28:06.613Z,9.76
2023-04-04T00:29:03.344Z,9.92
2023-04-04T00:30:00.190Z,9.90
2023-04-04T00:30:57.098Z,10.18
2023-04-04T00:31:53.981Z,9.74
2023-04-04T00:32:50.892Z,10.03
2023-04-04T00:33:47.813Z,10.08
2023-04-04T00:34:44.558Z,9.98
2023-04-04T00:35:42.544Z,9.79
2023-04-04T00:36:39.306Z,9.88
2023-04-04T00:37:36.087Z,10.19
2023-04-04T00:38:32.802Z,10.27
2023-04-04T00:39:29.635Z,9.95
2023-04-04T00:40:26.659Z,9.89
2023-04-04T00:41:23.957Z,9.99
2023-04-04T00:42:20.730Z,9.72
2023-04-04T00:43:18.914Z,9.97
2023-04-04T00:44:16.275Z,10.24
2023-04-04T00:45:13.123Z,10.03
2023-04-04T00:46:11.650Z,10.13
2023-04-04T00:47:11.636Z,10.06
2023-04-04T00:48:08.891Z,10.27
2023-04-04T00:49:05.686Z,9.65
2023-04-04T00:50:02.867Z,10.35
2023-04-04T00:50:59.690Z,9.45
2023-04-04T00:51:56.933Z,10.21
2023-04-04T00:52:53.709Z,10.40
2023-04-04T00:53:51.349Z,9.78
2023-04-04T00:54:48.263Z,10.43
2023-04-04T00:55:45.288Z,10.38
2023-04-04T00:56:42.836Z,10.31
2023-04-04T00:57:39.874Z,10.43
2023-04-04T00:58:36.927Z,10.42
2023-04-04T00:59:34.296Z,10.33
2023-04-04T01:00:33.246Z,10.27
2023-04-04T01:01:31.674Z,10.48
2023-04-04T01:02:28.657Z,10.58
2023-04-04T01:03:25.434Z,10.59
2023-04-04T01:04:22.452Z,10.51
2023-04-04T01:05:19.338Z,10.30
2023-04-04T01:06:16.324Z,10.32
2023-04-04T01:07:13.237Z,10.44
2023-04-04T01:08:10.189Z,10.28
2023-04-04T01:09:07.224Z,10.17
2023-04-04T01:10:04.229Z,10.31
2023-04-04T01:11:01.083Z,10.49
2023-04-04T01:11:58.329Z,9.75
2023-04-04T01:12:55.492Z,10.37
2023-04-04T01:13:52.409Z,10.49
2023-04-04T01:14:49.139Z,10.32
2023-04-04T01:15:45.998Z,10.37
2023-04-04T01:16:42.826Z,10.29
2023-04-04T01:17:41.550Z,9.74
2023-04-04T01:18:42.511Z,9.58
2023-04-04T01:19:48.116Z,9.96
2023-04-04T01:20:56.631Z,9.91
2023-04-04T01:21:54.076Z,9.92
2023-04-04T01:22:53.613Z,9.33
2023-04-04T01:23:56.447Z,10.09
2023-04-04T01:24:57.027Z,10.27
2023-04-04T01:26:02.978Z,10.36
2023-04-04T01:27:00.850Z,10.39
2023-04-04T01:27:59.183Z,9.96
2023-04-04T01:28:57.516Z,9.92
2023-04-04T01:29:54.662Z,9.63
2023-04-04T01:30:51.631Z,9.76
2023-04-04T01:31:56.318Z,9.92
2023-04-04T01:33:10.942Z,9.91
2023-04-04T01:34:30.483Z,10.24
2023-04-04T01:35:40.674Z,10.09
2023-04-04T01:36:49.507Z,9.86
2023-04-04T01:38:23.489Z,10.04
2023-04-04T01:39:48.301Z,9.82
2023-04-04T01:40:49.362Z,9.96
2023-04-04T01:41:48.694Z,9.87
2023-04-04T01:42:47.492Z,9.78
2023-04-04T01:43:47.493Z,9.62
2023-04-04T01:44:44.649Z,9.92
2023-04-04T01:45:42.224Z,9.92
2023-04-04T01:46:38.930Z,10.02
2023-04-04T01:47:42.831Z,9.63
2023-04-04T01:48:39.635Z,9.18
2023-04-04T01:49:36.360Z,9.74
2023-04-04T01:50:33.092Z,9.79
2023-04-04T01:51:31.072Z,9.79
2023-04-04T01:52:28.305Z,9.93
2023-04-04T01:53:25.090Z,9.85
2023-04-04T01:54:22.525Z,9.90
2023-04-04T01:55:19.298Z,9.93
2023-04-04T01:56:15.976Z,9.92
2023-04-04T01:57:12.897Z,10.08
2023-04-04T01:58:09.935Z,10.05
2023-04-04T01:59:07.393Z,9.94
2023-04-04T02:00:05.574Z,9.84
2023-04-04T02:01:02.401Z,9.93
2023-04-04T02:01:59.184Z,9.72
2023-04-04T02:02:55.980Z,9.89
2023-04-04T02:03:52.900Z,9.80
2023-04-04T02:04:49.725Z,9.63
2023-04-04T02:05:46.540Z,10.04
2023-04-04T02:06:43.298Z,10.18
2023-04-04T02:07:40.105Z,9.97
2023-04-04T02:08:38.415Z,10.23
2023-04-04T02:09:35.204Z,10.30
2023-04-04T02:10:32.021Z,10.75
2023-04-04T02:11:28.813Z,10.54
2023-04-04T02:12:25.630Z,10.22
2023-04-04T02:13:22.375Z,10.62
2023-04-04T02:14:20.188Z,10.54
2023-04-04T02:15:17.011Z,10.63
2023-04-04T02:16:13.773Z,10.74
2023-04-04T02:17:10.943Z,10.73
2023-04-04T02:18:07.838Z,10.44
2023-04-04T02:19:04.650Z,10.12
2023-04-04T02:20:01.922Z,10.13
2023-04-04T02:20:58.661Z,10.25
2023-04-04T02:21:56.617Z,10.65
2023-04-04T02:22:54.638Z,10.54
2023-04-04T02:23:51.340Z,10.28
2023-04-04T02:24:48.104Z,10.16
2023-04-04T02:25:44.851Z,10.09
2023-04-04T02:26:41.855Z,10.11
2023-04-04T02:27:38.608Z,10.21
2023-04-04T02:28:35.638Z,10.20
2023-04-04T02:29:32.401Z,10.58
2023-04-04T02:30:29.197Z,10.54
2023-04-04T02:31:26.010Z,9.99
2023-04-04T02:32:23.842Z,10.20
2023-04-04T02:33:20.702Z,10.40
2023-04-04T02:34:17.482Z,10.58
2023-04-04T02:35:14.681Z,10.50
2023-04-04T02:36:12.550Z,10.56
2023-04-04T02:37:09.273Z,10.57
2023-04-04T02:38:06.095Z,10.29
2023-04-04T02:39:04.817Z,10.58
2023-04-04T02:40:01.706Z,10.19
2023-04-04T02:40:58.461Z,9.89
2023-04-04T02:41:55.553Z,9.94
2023-04-04T02:42:52.264Z,10.00
2023-04-04T02:43:49.125Z,9.83
2023-04-04T02:44:45.844Z,10.00
2023-04-04T02:45:42.635Z,9.72
2023-04-04T02:46:39.426Z,10.16
2023-04-04T02:47:36.259Z,9.64
2023-04-04T02:48:33.010Z,10.01
2023-04-04T02:49:29.778Z,10.23
2023-04-04T02:50:27.171Z,9.98
2023-04-04T02:51:24.193Z,10.13
2023-04-04T02:52:22.281Z,9.92
2023-04-04T02:53:19.121Z,9.88
2023-04-04T02:54:16.116Z,9.60
2023-04-04T02:55:12.875Z,9.89
2023-04-04T02:56:09.612Z,9.84
2023-04-04T02:57:06.451Z,9.85
2023-04-04T02:58:03.172Z,9.48
2023-04-04T02:59:00.287Z,9.58
2023-04-04T02:59:57.268Z,9.66
2023-04-04T03:00:55.863Z,9.50
2023-04-04T03:01:52.728Z,10.21
2023-04-04T03:02:56.838Z,10.24
2023-04-04T03:03:54.048Z,10.13
2023-04-04T03:04:50.858Z,9.97
2023-04-04T03:05:49.659Z,10.05
2023-04-04T03:06:48.330Z,9.95
2023-04-04T03:07:45.109Z,9.97
2023-04-04T03:08:42.350Z,10.40
2023-04-04T03:09:39.202Z,10.54
2023-04-04T03:10:35.956Z,10.39
2023-04-04T03:11:32.873Z,10.45
2023-04-04T03:12:29.575Z,10.21
2023-04-04T03:13:26.290Z,10.35
2023-04-04T03:14:23.010Z,10.30
2023-04-04T03:15:19.831Z,10.20
2023-04-04T03:16:18.027Z,10.02
2023-04-04T03:17:15.500Z,9.55
2023-04-04T03:18:12.306Z,9.49
2023-04-04T03:19:09.122Z,9.76
2023-04-04T03:20:06.211Z,9.77
2023-04-04T03:21:02.943Z,9.70
2023-04-04T03:21:59.728Z,9.58
2023-04-04T03:22:57.761Z,9.30
2023-04-04T03:23:54.569Z,9.45
2023-04-04T03:24:51.334Z,9.87
2023-04-04T03:25:48.098Z,9.89
2023-04-04T03:26:44.878Z,9.83
2023-04-04T03:27:41.718Z,9.76
2023-04-04T03:28:38.415Z,9.51
2023-04-04T03:29:35.416Z,9.71
2023-04-04T03:30:32.164Z,9.42
2023-04-04T03:31:28.921Z,9.59
2023-04-04T03:32:26.366Z,9.45
2023-04-04T03:33:23.586Z,9.58
2023-04-04T03:34:20.683Z,9.65
2023-04-04T03:35:17.594Z,9.73
2023-04-04T03:36:14.910Z,9.77
2023-04-04T03:37:12.139Z,9.88
2023-04-04T03:38:10.021Z,9.84
2023-04-04T03:39:06.801Z,9.86
2023-04-04T03:40:03.773Z,10.03
2023-04-04T03:41:04.588Z,10.08
2023-04-04T03:42:01.357Z,9.86
2023-04-04T03:42:58.889Z,10.11
2023-04-04T03:43:57.726Z,10.04
2023-04-04T03:44:54.548Z,10.01
2023-04-04T03:45:51.770Z,9.88
2023-04-04T03:46:48.618Z,9.94
2023-04-04T03:47:45.311Z,9.75
2023-04-04T03:48:41.998Z,9.63
2023-04-04T03:49:39.063Z,9.33
2023-04-04T03:50:36.790Z,9.45
2023-04-04T03:51:33.512Z,9.54
2023-04-04T03:52:30.219Z,9.08
2023-04-04T03:53:27.554Z,9.55
2023-04-04T03:54:24.387Z,9.43
2023-04-04T03:55:21.253Z,9.75
2023-04-04T03:56:18.136Z,9.60
2023-04-04T03:57:14.934Z,9.51
2023-04-04T03:58:11.822Z,9.48
2023-04-04T03:59:08.634Z,9.51
2023-04-04T04:00:06.014Z,9.55
2023-04-04T04:01:02.853Z,9.36
2023-04-04T04:01:59.648Z,9.35
2023-04-04T04:02:56.450Z,9.27
2023-04-04T04:03:53.344Z,9.42
2023-04-04T04:04:50.596Z,9.02
2023-04-04T04:05:47.603Z,9.27
2023-04-04T04:06:46.401Z,9.40
2023-04-04T04:07:44.723Z,9.49
2023-04-04T04:08:41.497Z,9.44
2023-04-04T04:09:38.841Z,9.65
2023-04-04T04:10:35.642Z,9.49
2023-04-04T04:11:32.416Z,9.60
2023-04-04T04:12:29.513Z,9.47
2023-04-04T04:13:27.621Z,9.58
2023-04-04T04:14:24.446Z,9.36
2023-04-04T04:15:21.316Z,9.70
2023-04-04T04:16:18.299Z,9.60
2023-04-04T04:17:15.698Z,9.28
2023-04-04T04:18:12.515Z,9.12
2023-04-04T04:19:09.375Z,9.69
2023-04-04T04:20:07.892Z,9.43
2023-04-04T04:21:05.170Z,9.60
2023-04-04T04:22:02.309Z,8.99
2023-04-04T04:23:01.733Z,8.95
2023-04-04T04:23:58.650Z,6.30
2023-04-04T04:24:55.551Z,8.18
2023-04-04T04:25:52.450Z,7.62
2023-04-04T04:26:49.315Z,7.21
2023-04-04T04:27:46.126Z,6.51
2023-04-04T04:28:43.025Z,8.31
2023-04-04T04:29:39.767Z,9.54
2023-04-04T04:30:36.595Z,9.31
2023-04-04T04:31:33.630Z,9.49
2023-04-04T04:32:30.436Z,9.06
2023-04-04T04:33:30.455Z,9.11
2023-04-04T04:34:27.775Z,9.58
2023-04-04T04:35:24.541Z,9.60
2023-04-04T04:36:21.363Z,9.30
2023-04-04T04:37:18.056Z,9.58
2023-04-04T04:38:14.818Z,9.46
2023-04-04T04:39:11.512Z,9.56
2023-04-04T04:40:08.817Z,9.57
2023-04-04T04:41:05.645Z,9.37
2023-04-04T04:42:03.022Z,9.60
2023-04-04T04:42:59.814Z,9.76
2023-04-04T04:43:56.638Z,9.80
2023-04-04T04:44:53.380Z,9.73
2023-04-04T04:45:52.895Z,9.50
2023-04-04T04:46:49.658Z,9.32
2023-04-04T04:47:46.499Z,9.66
2023-04-04T04:48:43.268Z,9.74
2023-04-04T04:49:40.128Z,9.66
2023-04-04T04:50:36.862Z,9.70
2023-04-04T04:51:33.647Z,9.45
2023-04-04T04:52:32.084Z,9.84
2023-04-04T04:53:28.917Z,9.67
2023-04-04T04:54:25.875Z,9.79
2023-04-04T04:55:22.653Z,10.00
2023-04-04T04:56:19.453Z,10.01
2023-04-04T04:57:16.221Z,10.08
2023-04-04T04:58:13.053Z,10.27
2023-04-04T04:59:11.534Z,9.38
2023-04-04T05:00:10.082Z,10.18
2023-04-04T05:01:07.718Z,10.21
2023-04-04T05:02:04.732Z,9.85
2023-04-04T05:03:01.676Z,9.98
2023-04-04T05:03:59.066Z,10.06
2023-04-04T05:04:56.384Z,9.99
2023-04-04T05:05:53.425Z,9.74
2023-04-04T05:06:50.231Z,9.63
2023-04-04T05:07:47.426Z,9.69
2023-04-04T05:08:44.203Z,9.90
2023-04-04T05:09:41.005Z,9.89
2023-04-04T05:10:38.077Z,9.69
2023-04-04T05:11:35.019Z,9.81
2023-04-04T05:12:31.984Z,10.07
2023-04-04T05:13:28.680Z,9.84
2023-04-04T05:14:25.389Z,9.94
2023-04-04T05:15:22.532Z,9.76
2023-04-04T05:16:20.541Z,9.96
2023-04-04T05:17:17.315Z,9.96
2023-04-04T05:18:14.165Z,9.82
2023-04-04T05:19:11.147Z,10.06
2023-04-04T05:20:08.646Z,10.04
2023-04-04T05:21:05.426Z,9.97
2023-04-04T05:22:02.687Z,9.81
2023-04-04T05:22:59.491Z,9.78
2023-04-04T05:23:56.191Z,9.98
2023-04-04T05:24:53.194Z,9.80
2023-04-04T05:25:51.589Z,9.91
2023-04-04T05:26:48.421Z,9.91
2023-04-04T05:27:51.543Z,9.76
2023-04-04T05:28:48.948Z,9.91
2023-04-04T05:29:46.905Z,10.30
2023-04-04T05:30:43.619Z,9.92
2023-04-04T05:31:41.049Z,10.03
2023-04-04T05:32:38.113Z,10.11
2023-04-04T05:33:34.953Z,9.97
2023-04-04T05:34:31.835Z,10.02
2023-04-04T05:35:28.575Z,10.20
2023-04-04T05:36:25.509Z,10.41
2023-04-04T05:37:22.281Z,10.29
2023-04-04T05:38:19.081Z,10.28
2023-04-04T05:39:15.834Z,10.24
2023-04-04T05:40:12.771Z,10.20
2023-04-04T05:41:09.657Z,10.20
2023-04-04T05:42:06.422Z,10.15
2023-04-04T05:43:04.437Z,9.49
2023-04-04T05:44:01.602Z,9.98
2023-04-04T05:44:58.359Z,9.89
2023-04-04T05:45:55.190Z,9.85
2023-04-04T05:46:51.971Z,9.94
2023-04-04T05:47:48.789Z,10.23
2023-04-04T05:48:45.566Z,10.26
2023-04-04T05:49:44.331Z,10.21
2023-04-04T05:50:41.434Z,10.11
2023-04-04T05:51:38.531Z,10.29
2023-04-04T05:52:35.264Z,10.32
2023-04-04T05:53:32.104Z,10.79
2023-04-04T05:54:28.824Z,10.66
2023-04-04T05:55:25.670Z,10.72
2023-04-04T05:56:22.421Z,10.32
2023-04-04T05:57:19.145Z,10.12
2023-04-04T05:58:15.898Z,10.41
2023-04-04T05:59:12.598Z,10.02
2023-04-04T06:00:10.442Z,10.41
2023-04-04T06:01:08.965Z,10.40
2023-04-04T06:02:06.346Z,10.17
2023-04-04T06:03:03.174Z,9.97
2023-04-04T06:04:00.810Z,10.26
2023-04-04T06:04:57.596Z,9.98
2023-04-04T06:05:54.487Z,10.31
2023-04-04T06:06:52.061Z,10.27
2023-04-04T06:07:48.773Z,10.29
2023-04-04T06:08:53.478Z,10.25
2023-04-04T06:09:50.983Z,10.01
2023-04-04T06:10:47.705Z,10.17
2023-04-04T06:11:44.443Z,10.23
2023-04-04T06:12:41.171Z,10.06
2023-04-04T06:13:37.902Z,9.84
2023-04-04T06:14:37.947Z,9.74
2023-04-04T06:15:34.702Z,9.48
2023-04-04T06:16:31.653Z,9.54
2023-04-04T06:17:29.099Z,9.10
2023-04-04T06:18:25.900Z,9.23
2023-04-04T06:19:22.784Z,9.06
2023-04-04T06:20:21.477Z,8.96
2023-04-04T06:21:18.218Z,8.93
2023-04-04T06:22:16.147Z,8.73
2023-04-04T06:23:31.509Z,8.31
2023-04-04T06:24:28.252Z,8.17
2023-04-04T06:25:26.903Z,7.84
2023-04-04T06:26:23.733Z,8.08
2023-04-04T06:27:20.850Z,7.57
2023-04-04T06:28:18.185Z,7.41
2023-04-04T06:29:15.018Z,7.40
2023-04-04T06:30:14.497Z,7.13
2023-04-04T06:31:11.292Z,7.07
2023-04-04T06:32:08.238Z,7.34
2023-04-04T06:33:06.198Z,6.97
2023-04-04T06:34:03.187Z,6.95
2023-04-04T06:34:59.884Z,6.45
2023-04-04T06:35:56.613Z,6.80
2023-04-04T06:36:53.376Z,7.07
2023-04-04T06:37:55.951Z,7.31
2023-04-04T06:38:52.641Z,7.20
2023-04-04T06:39:49.316Z,7.15
2023-04-04T06:40:46.467Z,6.95
2023-04-04T06:41:43.190Z,7.03
2023-04-04T06:42:40.098Z,6.87
2023-04-04T06:43:36.828Z,6.76
2023-04-04T06:44:33.918Z,6.43
2023-04-04T06:45:33.569Z,6.94
2023-04-04T06:46:33.199Z,6.88
2023-04-04T06:47:30.393Z,6.95
2023-04-04T06:48:27.145Z,6.78
2023-04-04T06:49:23.856Z,6.68
2023-04-04T06:50:22.386Z,6.72
2023-04-04T06:51:19.149Z,6.80
2023-04-04T06:52:16.129Z,6.79
2023-04-04T06:53:14.880Z,6.88
2023-04-04T06:54:12.058Z,6.51
2023-04-04T06:55:09.167Z,6.32
2023-04-04T06:56:06.227Z,6.53
2023-04-04T06:57:03.021Z,6.35
2023-04-04T06:57:59.731Z,6.55
2023-04-04T06:58:56.973Z,6.22
2023-04-04T06:59:54.276Z,6.39
2023-04-04T07:00:51.319Z,6.49
2023-04-04T07:01:48.155Z,6.29
2023-04-04T07:02:44.973Z,6.38
2023-04-04T07:03:42.402Z,6.54
2023-04-04T07:04:40.146Z,5.95
2023-04-04T07:05:40.020Z,6.08
2023-04-04T07:06:37.298Z,6.08
2023-04-04T07:07:34.092Z,6.16
2023-04-04T07:08:35.949Z,6.19
2023-04-04T07:09:33.559Z,5.45
2023-04-04T07:10:30.693Z,5.98
2023-04-04T07:11:27.513Z,5.48
2023-04-04T07:12:24.280Z,5.79
2023-04-04T07:13:23.765Z,6.06
2023-04-04T07:14:25.278Z,5.61
2023-04-04T07:15:23.080Z,6.16
2023-04-04T07:16:19.838Z,6.21
2023-04-04T07:17:24.336Z,5.36
2023-04-04T07:18:21.997Z,5.87
2023-04-04T07:19:18.740Z,5.59
2023-04-04T07:20:15.768Z,6.41
2023-04-04T07:21:13.531Z,6.05
2023-04-04T07:22:10.249Z,5.64
2023-04-04T07:23:07.204Z,6.22
2023-04-04T07:24:04.051Z,6.25
2023-04-04T07:25:00.776Z,6.50
2023-04-04T07:25:57.887Z,6.35
2023-04-04T07:26:54.597Z,6.26
2023-04-04T07:27:59.624Z,6.12
2023-04-04T07:29:03.090Z,5.97
2023-04-04T07:29:59.851Z,5.95
2023-04-04T07:31:00.194Z,6.02
2023-04-04T07:31:56.953Z,5.64
2023-04-04T07:32:58.243Z,6.11
2023-04-04T07:33:55.452Z,5.90
2023-04-04T07:34:52.682Z,6.16
2023-04-04T07:35:49.446Z,6.06
2023-04-04T07:36:46.913Z,6.04
2023-04-04T07:37:43.719Z,5.71
2023-04-04T07:38:40.478Z,5.84
2023-04-04T07:39:37.711Z,6.19
2023-04-04T07:40:34.440Z,6.34
2023-04-04T07:41:31.386Z,6.32
2023-04-04T07:42:28.168Z,6.49
2023-04-04T07:43:25.004Z,6.51
2023-04-04T07:44:21.804Z,5.75
2023-04-04T07:45:22.250Z,6.31
2023-04-04T07:46:20.369Z,6.42
2023-04-04T07:47:18.098Z,6.36
2023-04-04T07:48:15.006Z,6.48
2023-04-04T07:49:12.759Z,5.88
2023-04-04T07:50:09.944Z,5.72
2023-04-04T07:51:06.794Z,5.98
2023-04-04T07:52:04.622Z,6.15
2023-04-04T07:53:01.620Z,6.42
2023-04-04T07:53:58.377Z,5.70
2023-04-04T07:54:55.348Z,5.77
2023-04-04T07:55:55.082Z,6.02
2023-04-04T07:56:52.051Z,5.55
2023-04-04T07:57:48.747Z,5.87
2023-04-04T07:58:50.133Z,6.04
2023-04-04T07:59:47.287Z,6.02
2023-04-04T08:00:44.057Z,5.81
2023-04-04T08:01:40.821Z,5.50
2023-04-04T08:02:38.722Z,5.75
2023-04-04T08:03:38.217Z,5.71
2023-04-04T08:04:35.163Z,5.47
2023-04-04T08:05:31.982Z,5.62
2023-04-04T08:06:28.733Z,5.45
2023-04-04T08:07:25.537Z,5.66
2023-04-04T08:08:22.741Z,5.63
2023-04-04T08:09:19.436Z,5.57
2023-04-04T08:10:19.263Z,5.45
2023-04-04T08:11:16.660Z,5.61
2023-04-04T08:12:13.410Z,5.73
2023-04-04T08:13:10.130Z,5.68
2023-04-04T08:14:06.892Z,5.41
2023-04-04T08:15:03.829Z,5.80
2023-04-04T08:16:00.671Z,5.38
2023-04-04T08:16:57.691Z,5.61
2023-04-04T08:17:56.209Z,5.26
2023-04-04T08:18:53.031Z,5.92
2023-04-04T08:19:49.746Z,5.96
2023-04-04T08:20:47.173Z,6.08
2023-04-04T08:21:44.739Z,5.83
2023-04-04T08:22:42.510Z,5.80
2023-04-04T08:23:39.358Z,6.10
2023-04-04T08:24:36.853Z,6.15
2023-04-04T08:25:35.057Z,6.12
2023-04-04T08:26:32.056Z,5.88
2023-04-04T08:27:28.894Z,5.98
2023-04-04T08:28:27.455Z,5.43
2023-04-04T08:29:24.261Z,5.85
2023-04-04T08:30:21.056Z,5.87
2023-04-04T08:31:19.024Z,5.96
2023-04-04T08:32:15.774Z,5.62
2023-04-04T08:33:12.745Z,5.89
2023-04-04T08:34:09.476Z,6.11
2023-04-04T08:35:06.581Z,5.92
2023-04-04T08:36:03.561Z,5.82
2023-04-04T08:37:00.383Z,5.68
2023-04-04T08:37:57.442Z,6.00
2023-04-04T08:38:54.426Z,6.28
2023-04-04T08:39:51.342Z,6.14
2023-04-04T08:40:48.240Z,6.29
2023-04-04T08:41:46.344Z,6.08
2023-04-04T08:42:46.211Z,6.00
2023-04-04T08:43:49.132Z,5.90
2023-04-04T08:44:48.045Z,6.13
2023-04-04T08:45:49.190Z,5.87
2023-04-04T08:46:47.455Z,5.83
2023-04-04T08:47:46.310Z,6.00
2023-04-04T08:48:44.910Z,6.02
2023-04-04T08:49:46.258Z,5.88
2023-04-04T08:50:44.414Z,4.91
2023-04-04T08:51:45.177Z,5.77
2023-04-04T08:52:43.383Z,5.56
2023-04-04T08:53:40.678Z,5.86
2023-04-04T08:54:40.086Z,5.82
2023-04-04T08:55:37.199Z,5.35
2023-04-04T08:56:35.951Z,5.59
2023-04-04T08:57:33.521Z,5.56
2023-04-04T08:58:30.479Z,5.73
2023-04-04T08:59:27.566Z,5.97
2023-04-04T09:00:25.270Z,6.10
2023-04-04T09:01:22.886Z,5.98
2023-04-04T09:02:48.933Z,6.12
2023-04-04T09:03:47.172Z,6.16
2023-04-04T09:04:54.547Z,6.30
2023-04-04T09:05:56.098Z,6.04
2023-04-04T09:06:54.103Z,6.15
2023-04-04T09:07:51.781Z,5.86
2023-04-04T09:08:48.842Z,6.15
2023-04-04T09:09:47.888Z,5.77
2023-04-04T09:10:46.323Z,5.47
2023-04-04T09:11:46.896Z,5.84
2023-04-04T09:12:47.770Z,4.03
2023-04-04T09:13:45.693Z,5.80
2023-04-04T09:14:46.280Z,5.41
2023-04-04T09:15:57.519Z,5.53
2023-04-04T09:16:54.443Z,6.11
2023-04-04T09:17:51.411Z,5.96
2023-04-04T09:18:48.524Z,5.95
2023-04-04T09:19:45.702Z,5.96
2023-04-04T09:20:44.517Z,6.24
2023-04-04T09:21:50.053Z,6.31
2023-04-04T09:22:46.970Z,6.19
2023-04-04T09:23:44.785Z,6.13
2023-04-04T09:24:43.705Z,6.36
2023-04-04T09:26:52.701Z,5.98
2023-04-04T09:27:50.142Z,6.06
2023-04-04T09:28:53.571Z,6.10
2023-04-04T09:29:50.475Z,6.09
2023-04-04T09:30:51.703Z,5.67
2023-04-04T09:31:51.514Z,5.78
2023-04-04T09:32:51.464Z,5.74
2023-04-04T09:33:51.379Z,5.75
2023-04-04T09:34:48.628Z,6.08
2023-04-04T09:35:52.422Z,6.18
2023-04-04T09:36:49.371Z,6.09
2023-04-04T09:37:46.579Z,5.98
2023-04-04T09:38:44.197Z,5.94
2023-04-04T09:39:43.529Z,6.00
2023-04-04T09:40:42.573Z,6.28
2023-04-04T09:41:40.302Z,6.09
2023-04-04T09:42:37.536Z,6.00
2023-04-04T09:43:39.790Z,6.15
2023-04-04T09:44:39.597Z,5.90
2023-04-04T09:45:40.657Z,6.10
2023-04-04T09:46:37.988Z,5.69
2023-04-04T09:47:42.819Z,5.35
2023-04-04T09:48:39.649Z,5.17
2023-04-04T09:49:36.365Z,4.72
2023-04-04T09:50:33.781Z,5.33
2023-04-04T09:51:36.136Z,5.50
2023-04-04T09:52:37.833Z,5.75
2023-04-04T09:53:36.942Z,5.83
2023-04-04T09:54:40.256Z,6.19
2023-04-04T09:55:42.269Z,6.12
2023-04-04T09:56:39.364Z,5.73
2023-04-04T09:57:37.957Z,4.90
2023-04-04T09:58:40.429Z,5.38
2023-04-04T09:59:41.529Z,5.46
2023-04-04T10:00:42.962Z,4.95
2023-04-04T10:01:40.570Z,5.38
2023-04-04T10:02:41.233Z,5.41
2023-04-04T10:03:42.079Z,5.18
2023-04-04T10:04:38.970Z,5.33
2023-04-04T10:05:36.011Z,5.44
2023-04-04T10:06:33.264Z,5.32
2023-04-04T10:07:32.461Z,4.97
2023-04-04T10:08:30.176Z,5.59
2023-04-04T10:09:28.619Z,5.80
2023-04-04T10:10:31.385Z,5.88
2023-04-04T10:11:32.371Z,5.78
2023-04-04T10:12:31.242Z,5.74
2023-04-04T10:13:30.498Z,5.85
2023-04-04T10:14:35.989Z,5.25
2023-04-04T10:15:38.389Z,5.53
2023-04-04T10:16:38.695Z,5.11
2023-04-04T10:17:40.829Z,5.28
2023-04-04T10:18:37.748Z,5.33
2023-04-04T10:19:37.480Z,5.39
2023-04-04T10:20:34.639Z,5.48
2023-04-04T10:21:32.119Z,5.89
2023-04-04T10:22:28.965Z,5.75
2023-04-04T10:23:27.817Z,5.87
2023-04-04T10:24:25.239Z,5.47
2023-04-04T10:25:22.248Z,5.89
2023-04-04T10:26:19.045Z,5.73
2023-04-04T10:27:16.254Z,5.15
2023-04-04T10:28:13.200Z,5.77
2023-04-04T10:29:11.566Z,5.06
2023-04-04T10:30:09.828Z,5.53
2023-04-04T10:31:13.941Z,5.38
2023-04-04T10:32:22.824Z,5.30
2023-04-04T10:33:59.493Z,5.29
2023-04-04T10:35:17.800Z,5.61
2023-04-04T10:36:21.509Z,5.90
2023-04-04T10:37:29.167Z,5.92
2023-04-04T10:38:31.653Z,5.51
2023-04-04T10:39:53.952Z,5.66
2023-04-04T10:40:57.931Z,5.35
2023-04-04T10:41:58.529Z,5.42
2023-04-04T10:42:58.171Z,5.19
2023-04-04T10:44:01.340Z,4.69
2023-04-04T10:45:13.104Z,5.77
2023-04-04T10:46:23.167Z,5.93
2023-04-04T10:47:26.512Z,5.92
2023-04-04T10:48:26.171Z,6.02
2023-04-04T10:49:23.085Z,5.90
2023-04-04T10:50:20.948Z,5.90
2023-04-04T10:51:18.350Z,5.78
2023-04-04T10:52:21.485Z,6.07
2023-04-04T10:53:18.696Z,5.75
2023-04-04T10:54:15.898Z,5.90
2023-04-04T10:55:15.037Z,5.84
2023-04-04T10:56:12.840Z,5.07
2023-04-04T10:57:11.200Z,5.06
2023-04-04T10:58:08.981Z,5.11
2023-04-04T10:59:11.488Z,4.98
2023-04-04T11:00:12.650Z,5.02
2023-04-04T11:01:09.501Z,5.28
2023-04-04T11:02:06.989Z,5.38
2023-04-04T11:03:05.085Z,5.51
2023-04-04T11:04:28.494Z,5.18
2023-04-04T11:05:43.582Z,5.61
2023-04-04T11:07:05.658Z,5.97
2023-04-04T11:08:09.154Z,5.30
2023-04-04T11:09:07.234Z,5.83
2023-04-04T11:10:15.227Z,6.02
2023-04-04T11:11:21.874Z,5.81
2023-04-04T11:12:28.909Z,5.50
2023-04-04T11:13:29.499Z,5.31
2023-04-04T11:14:30.317Z,4.70
2023-04-04T11:15:27.599Z,5.24
2023-04-04T11:16:24.477Z,5.18
2023-04-04T11:17:51.718Z,5.60
2023-04-04T11:18:49.184Z,5.26
2023-04-04T11:19:59.825Z,5.27
2023-04-04T11:20:56.687Z,5.05
2023-04-04T11:21:53.493Z,5.25
2023-04-04T11:23:02.272Z,5.24
2023-04-04T11:24:15.023Z,5.50
2023-04-04T11:25:33.769Z,5.58
2023-04-04T11:26:30.617Z,5.63
2023-04-04T11:27:30.604Z,5.74
2023-04-04T11:28:33.535Z,6.06
2023-04-04T11:29:49.822Z,6.10
2023-04-04T11:30:50.333Z,5.50
2023-04-04T11:31:49.411Z,5.48
2023-04-04T11:33:04.007Z,5.62
2023-04-04T11:34:08.091Z,5.76
2023-04-04T11:35:13.676Z,6.00
2023-04-04T11:36:45.306Z,5.55
2023-04-04T11:37:51.465Z,5.80
2023-04-04T11:38:50.338Z,5.70
2023-04-04T11:39:57.422Z,5.56
2023-04-04T11:40:56.508Z,5.89
2023-04-04T11:42:03.866Z,5.49
2023-04-04T11:43:03.636Z,5.76
2023-04-04T11:44:10.248Z,5.66
2023-04-04T11:45:07.960Z,5.64
2023-04-04T11:46:10.963Z,5.68
2023-04-04T11:47:09.288Z,5.85
2023-04-04T11:48:08.280Z,5.62
2023-04-04T11:49:07.575Z,5.85
2023-04-04T11:50:09.675Z,5.38
2023-04-04T11:51:07.187Z,5.72
2023-04-04T11:52:15.551Z,5.73
2023-04-04T11:53:13.181Z,5.31
2023-04-04T11:54:18.786Z,5.23
2023-04-04T11:55:18.247Z,5.62
2023-04-04T11:56:16.446Z,5.63
2023-04-04T11:57:15.280Z,5.26
2023-04-04T11:58:13.595Z,5.14
2023-04-04T11:59:19.299Z,5.32
2023-04-04T12:00:35.407Z,5.31
2023-04-04T12:01:32.447Z,5.50
2023-04-04T12:02:34.893Z,5.53
2023-04-04T12:03:32.181Z,5.64
2023-04-04T12:04:29.258Z,5.46
2023-04-04T12:05:27.138Z,5.32
2023-04-04T12:06:24.117Z,5.44
2023-04-04T12:07:21.079Z,5.50
2023-04-04T12:08:18.401Z,5.16
2023-04-04T12:09:18.441Z,5.20
2023-04-04T12:10:15.324Z,5.36
2023-04-04T12:11:18.723Z,5.44
2023-04-04T12:12:18.896Z,5.57
2023-04-04T12:13:15.655Z,5.60
2023-04-04T12:14:33.614Z,4.65
2023-04-04T12:15:30.496Z,5.49
2023-04-04T12:16:28.319Z,5.33
2023-04-04T12:17:29.611Z,5.44
2023-04-04T12:18:26.512Z,5.33
2023-04-04T12:19:25.028Z,5.42
2023-04-04T12:20:25.412Z,5.47
2023-04-04T12:21:22.312Z,5.15
2023-04-04T12:22:20.362Z,5.23
2023-04-04T12:23:17.108Z,4.89
2023-04-04T12:24:14.569Z,4.71
2023-04-04T12:25:11.493Z,4.91
2023-04-04T12:26:16.589Z,4.62
2023-04-04T12:27:13.442Z,5.11
2023-04-04T12:28:11.663Z,4.86
2023-04-04T12:29:11.386Z,4.82
2023-04-04T12:30:15.630Z,4.81
2023-04-04T12:31:15.616Z,4.74
2023-04-04T12:32:14.353Z,4.65
2023-04-04T12:33:11.576Z,4.83
2023-04-04T12:34:19.597Z,4.44
2023-04-04T12:35:16.696Z,4.56
2023-04-04T12:36:13.611Z,4.49
2023-04-04T12:37:13.965Z,4.88
2023-04-04T12:38:16.937Z,4.74
2023-04-04T12:39:17.604Z,4.57
2023-04-04T12:40:15.382Z,4.20
2023-04-04T12:41:19.591Z,4.36
2023-04-04T12:42:24.789Z,4.87
2023-04-04T12:43:21.798Z,4.58
2023-04-04T12:44:34.573Z,4.75
2023-04-04T12:45:32.375Z,4.61
2023-04-04T12:46:36.766Z,4.85
2023-04-04T12:47:34.279Z,4.84
2023-04-04T12:48:31.857Z,4.08
2023-04-04T12:49:35.594Z,4.93
2023-04-04T12:50:32.569Z,4.39
2023-04-04T12:51:36.185Z,4.79
2023-04-04T12:52:33.029Z,4.90
2023-04-04T12:53:30.628Z,4.83
2023-04-04T12:54:29.927Z,4.23
2023-04-04T12:55:31.551Z,4.70
2023-04-04T12:56:29.203Z,4.90
2023-04-04T12:57:28.359Z,4.74
2023-04-04T12:58:26.387Z,4.39
2023-04-04T12:59:23.585Z,4.47